createdAt,value
2022-12-11T00:01:21.129Z,95337.25
2022-12-11T00:03:49.406Z,95324.09
2022-12-11T00:06:21.268Z,95310.08
2022-12-11T00:08:54.980Z,95308.35
2022-12-11T00:11:23.980Z,95308.06
2022-12-11T00:13:52.135Z,95304.19
2022-12-11T00:16:23.899Z,95301.08
2022-12-11T00:18:55.703Z,95302.13
2022-12-11T00:21:23.938Z,95296.68
2022-12-11T00:23:52.412Z,95283.30
2022-12-11T00:26:21.098Z,95282.08
2022-12-11T00:28:54.603Z,95285.55
2022-12-11T00:31:24.170Z,95279.81
2022-12-11T00:33:52.757Z,95280.39
2022-12-11T00:36:26.301Z,95277.14
2022-12-11T00:38:55.084Z,95275.66
2022-12-11T00:41:23.456Z,95277.98
2022-12-11T00:43:51.622Z,95266.33
2022-12-11T00:46:22.016Z,95263.59
2022-12-11T00:48:50.338Z,95261.46
2022-12-11T00:51:18.405Z,95257.38
2022-12-11T00:53:46.917Z,95245.73
2022-12-11T00:56:20.396Z,95238.10
2022-12-11T00:58:49.474Z,95229.19
2022-12-11T01:01:23.904Z,95230.70
2022-12-11T01:03:54.276Z,95228.45
2022-12-11T01:06:26.397Z,95221.67
2022-12-11T01:09:15.255Z,95219.06
2022-12-11T01:11:43.987Z,95217.23
2022-12-11T01:14:12.212Z,95220.02
2022-12-11T01:16:40.361Z,95219.96
2022-12-11T01:19:09.177Z,95213.69
2022-12-11T01:21:37.301Z,95216.63
2022-12-11T01:24:06.182Z,95221.23
2022-12-11T01:26:34.732Z,95219.61
2022-12-11T01:29:03.512Z,95216.65
2022-12-11T01:31:31.687Z,95215.14
2022-12-11T01:33:59.916Z,95213.29
2022-12-11T01:36:28.089Z,95208.71
2022-12-11T01:38:56.954Z,95208.50
2022-12-11T01:41:25.201Z,95208.00
2022-12-11T01:44:15.715Z,95201.64
2022-12-11T01:46:44.099Z,95199.34
2022-12-11T01:49:15.307Z,95197.20
2022-12-11T01:51:53.657Z,95198.35
2022-12-11T01:54:24.295Z,95197.11
2022-12-11T01:56:56.143Z,95190.00
2022-12-11T01:59:28.853Z,95191.70
2022-12-11T02:02:18.608Z,95188.67
2022-12-11T02:04:48.912Z,95181.94
2022-12-11T02:07:17.316Z,95180.84
2022-12-11T02:09:47.613Z,95180.83
2022-12-11T02:12:59.134Z,95175.45
2022-12-11T02:15:39.271Z,95169.90
2022-12-11T02:18:36.731Z,95161.83
2022-12-11T02:21:28.558Z,95157.31
2022-12-11T02:24:12.220Z,95154.82
2022-12-11T02:27:05.554Z,95149.71
2022-12-11T02:29:40.399Z,95146.95
2022-12-11T02:32:27.398Z,95146.30
2022-12-11T02:35:04.897Z,95148.64
2022-12-11T02:37:38.087Z,95150.78
2022-12-11T02:40:11.323Z,95144.82
2022-12-11T02:42:43.136Z,95141.04
2022-12-11T02:45:14.075Z,95135.02
2022-12-11T02:47:46.957Z,95130.21
2022-12-11T02:50:21.390Z,95124.30
2022-12-11T02:52:53.753Z,95119.96
2022-12-11T02:55:24.482Z,95121.06
2022-12-11T02:58:18.364Z,95120.14
2022-12-11T03:00:46.634Z,95118.63
2022-12-11T03:03:15.169Z,95119.04
2022-12-11T03:05:44.045Z,95119.55
2022-12-11T03:08:12.862Z,95113.27
2022-12-11T03:10:41.031Z,95110.38
2022-12-11T03:13:09.803Z,95114.66
2022-12-11T03:15:59.084Z,95111.54
2022-12-11T03:18:35.684Z,95103.41
2022-12-11T03:21:38.370Z,95100.46
2022-12-11T03:24:41.688Z,95100.92
2022-12-11T03:27:56.547Z,95098.65
2022-12-11T03:30:30.225Z,95098.92
2022-12-11T03:33:08.131Z,95098.21
2022-12-11T03:35:42.801Z,95093.64
2022-12-11T03:38:28.121Z,95088.15
2022-12-11T03:41:01.881Z,95080.69
2022-12-11T03:43:32.163Z,95070.02
2022-12-11T03:46:01.539Z,95069.91
2022-12-11T03:48:36.221Z,95062.50
2022-12-11T03:51:06.997Z,95055.83
2022-12-11T03:53:37.582Z,95045.95
2022-12-11T03:56:09.955Z,95039.41
2022-12-11T03:58:38.846Z,95033.08
2022-12-11T04:01:11.725Z,95026.45
2022-12-11T04:03:40.213Z,95027.58
2022-12-11T04:06:08.659Z,95034.00
2022-12-11T04:08:36.764Z,95033.95
2022-12-11T04:11:23.989Z,95026.44
2022-12-11T04:14:12.126Z,95014.04
2022-12-11T04:16:40.302Z,95013.88
2022-12-11T04:19:28.803Z,95013.89
2022-12-11T04:22:15.669Z,95011.20
2022-12-11T04:24:44.046Z,95013.23
2022-12-11T04:27:12.286Z,95012.64
2022-12-11T04:29:40.499Z,95007.83
2022-12-11T04:32:08.669Z,95002.98
2022-12-11T04:34:36.803Z,94999.70
2022-12-11T04:37:04.918Z,94995.62
2022-12-11T04:39:33.089Z,95000.34
2022-12-11T04:42:01.673Z,94998.08
2022-12-11T04:44:29.743Z,94999.08
2022-12-11T04:46:57.922Z,95004.32
2022-12-11T04:49:25.957Z,95000.09
2022-12-11T04:51:54.168Z,95007.58
2022-12-11T04:54:22.394Z,95009.77
2022-12-11T04:56:50.522Z,95010.73
2022-12-11T04:59:18.688Z,95006.76
2022-12-11T05:01:46.883Z,95010.39
2022-12-11T05:04:15.450Z,95007.91
2022-12-11T05:06:43.913Z,95002.82
2022-12-11T05:09:13.040Z,95006.20
2022-12-11T05:11:41.238Z,95000.12
2022-12-11T05:14:09.537Z,94995.58
2022-12-11T05:16:37.746Z,95000.02
2022-12-11T05:19:05.920Z,94993.70
2022-12-11T05:21:35.320Z,94991.76
2022-12-11T05:24:04.536Z,95003.61
2022-12-11T05:26:32.796Z,95004.14
2022-12-11T05:29:01.192Z,95007.27
2022-12-11T05:31:29.568Z,95003.56
2022-12-11T05:33:57.787Z,95006.77
2022-12-11T05:36:30.413Z,95007.31
2022-12-11T05:39:00.530Z,95003.82
2022-12-11T05:41:31.455Z,95006.98
2022-12-11T05:44:00.190Z,95006.05
2022-12-11T05:46:31.245Z,95007.77
2022-12-11T05:49:02.240Z,95012.73
2022-12-11T05:51:31.600Z,95013.59
2022-12-11T05:54:00.398Z,95008.13
2022-12-11T05:56:35.234Z,95008.17
2022-12-11T05:59:05.794Z,95009.02
2022-12-11T06:01:41.549Z,95011.13
2022-12-11T06:04:12.402Z,95013.65
2022-12-11T06:06:41.485Z,95013.55
2022-12-11T06:09:14.583Z,95016.30
2022-12-11T06:11:43.338Z,95015.95
2022-12-11T06:14:12.295Z,95015.73
2022-12-11T06:16:40.947Z,95022.73
2022-12-11T06:19:15.255Z,95018.91
2022-12-11T06:21:43.989Z,95015.10
2022-12-11T06:24:12.619Z,95017.79
2022-12-11T06:26:40.700Z,95018.45
2022-12-11T06:29:12.594Z,95025.33
2022-12-11T06:31:41.351Z,95028.12
2022-12-11T06:34:12.970Z,95032.95
2022-12-11T06:36:41.171Z,95041.10
2022-12-11T06:39:09.668Z,95048.06
2022-12-11T06:41:38.347Z,95053.14
2022-12-11T06:44:06.509Z,95052.29
2022-12-11T06:46:34.684Z,95053.36
2022-12-11T06:49:03.271Z,95061.95
2022-12-11T06:51:32.852Z,95065.55
2022-12-11T06:54:00.974Z,95070.91
2022-12-11T06:56:29.312Z,95070.85
2022-12-11T06:58:59.010Z,95073.90
2022-12-11T07:01:31.996Z,95071.08
2022-12-11T07:04:00.522Z,95073.52
2022-12-11T07:06:29.712Z,95082.49
2022-12-11T07:08:57.803Z,95087.15
2022-12-11T07:11:26.095Z,95088.42
2022-12-11T07:13:54.611Z,95087.63
2022-12-11T07:16:22.840Z,95095.21
2022-12-11T07:18:52.009Z,95097.02
2022-12-11T07:21:21.169Z,95100.55
2022-12-11T07:23:50.526Z,95102.52
2022-12-11T07:26:22.146Z,95105.34
2022-12-11T07:28:50.541Z,95110.86
2022-12-11T07:31:23.645Z,95118.16
2022-12-11T07:33:58.094Z,95121.58
2022-12-11T07:36:27.192Z,95132.73
2022-12-11T07:38:56.343Z,95133.50
2022-12-11T07:41:25.152Z,95138.64
2022-12-11T07:43:56.555Z,95151.86
2022-12-11T07:46:29.211Z,95168.26
2022-12-11T07:48:57.519Z,95175.90
2022-12-11T07:51:32.884Z,95177.53
2022-12-11T07:54:17.024Z,95187.65
2022-12-11T07:56:53.266Z,95202.86
2022-12-11T07:59:22.095Z,95222.25
2022-12-11T08:01:50.150Z,95226.07
2022-12-11T08:04:18.289Z,95231.52
2022-12-11T08:06:46.506Z,95236.84
2022-12-11T08:09:21.005Z,95237.69
2022-12-11T08:11:51.123Z,95239.08
2022-12-11T08:14:20.715Z,95239.43
2022-12-11T08:16:49.792Z,95243.48
2022-12-11T08:19:18.233Z,95249.95
2022-12-11T08:21:46.899Z,95264.71
2022-12-11T08:24:20.207Z,95279.27
2022-12-11T08:26:48.796Z,95284.17
2022-12-11T08:29:17.682Z,95298.20
2022-12-11T08:31:46.062Z,95313.73
2022-12-11T08:34:14.544Z,95321.08
2022-12-11T08:36:43.979Z,95324.14
2022-12-11T08:39:12.225Z,95337.98
2022-12-11T08:41:40.906Z,95341.77
2022-12-11T08:44:16.322Z,95334.78
2022-12-11T08:46:45.868Z,95337.67
2022-12-11T08:49:13.943Z,95344.42
2022-12-11T08:51:42.104Z,95348.05
2022-12-11T08:54:11.203Z,95356.09
2022-12-11T08:56:39.286Z,95354.52
2022-12-11T08:59:07.448Z,95359.28
2022-12-11T09:01:35.747Z,95369.09
2022-12-11T09:04:04.099Z,95373.65
2022-12-11T09:06:33.706Z,95380.99
2022-12-11T09:09:03.548Z,95385.40
2022-12-11T09:11:36.106Z,95390.72
2022-12-11T09:14:07.939Z,95387.78
2022-12-11T09:16:42.999Z,95391.88
2022-12-11T09:19:16.450Z,95398.73
2022-12-11T09:21:45.743Z,95408.95
2022-12-11T09:24:17.859Z,95417.95
2022-12-11T09:26:47.408Z,95424.02
2022-12-11T09:29:15.507Z,95430.14
2022-12-11T09:31:44.087Z,95439.08
2022-12-11T09:34:13.836Z,95448.23
2022-12-11T09:36:44.244Z,95456.38
2022-12-11T09:39:15.174Z,95454.51
2022-12-11T09:42:02.522Z,95458.16
2022-12-11T09:44:48.349Z,95466.98
2022-12-11T09:47:21.746Z,95479.65
2022-12-11T09:50:02.681Z,95485.70
2022-12-11T09:52:50.822Z,95493.95
2022-12-11T09:55:26.162Z,95507.07
2022-12-11T09:58:43.623Z,95511.15
2022-12-11T10:01:26.372Z,95515.21
2022-12-11T10:04:16.190Z,95533.16
2022-12-11T10:07:01.212Z,95540.69
2022-12-11T10:10:17.625Z,95540.25
2022-12-11T10:12:53.927Z,95532.77
2022-12-11T10:15:35.859Z,95518.47
2022-12-11T10:18:10.231Z,95505.23
2022-12-11T10:20:42.794Z,95511.79
2022-12-11T10:23:40.696Z,95522.34
2022-12-11T10:26:23.391Z,95527.59
2022-12-11T10:28:52.104Z,95528.23
2022-12-11T10:31:53.761Z,95533.76
2022-12-11T10:34:37.934Z,95547.63
2022-12-11T10:37:06.282Z,95555.23
2022-12-11T10:39:34.372Z,95554.71
2022-12-11T10:42:16.384Z,95572.14
2022-12-11T10:45:01.117Z,95574.91
2022-12-11T10:47:30.055Z,95575.65
2022-12-11T10:50:02.796Z,95575.92
2022-12-11T10:52:39.095Z,95574.84
2022-12-11T10:55:24.736Z,95574.48
2022-12-11T10:58:03.553Z,95585.40
2022-12-11T11:00:40.728Z,95597.56
2022-12-11T11:03:28.481Z,95609.41
2022-12-11T11:06:24.770Z,95614.52
2022-12-11T11:08:59.057Z,95630.60
2022-12-11T11:11:30.236Z,95643.92
2022-12-11T11:14:15.489Z,95648.07
2022-12-11T11:16:48.088Z,95647.83
2022-12-11T11:19:24.725Z,95651.96
2022-12-11T11:21:59.320Z,95663.51
2022-12-11T11:25:07.373Z,95674.38
2022-12-11T11:27:44.355Z,95692.97
2022-12-11T11:30:26.398Z,95702.14
2022-12-11T11:33:01.562Z,95699.63
2022-12-11T11:35:31.904Z,95704.17
2022-12-11T11:38:12.129Z,95702.45
2022-12-11T11:40:51.259Z,95700.38
2022-12-11T11:43:53.210Z,95696.91
2022-12-11T11:46:36.745Z,95702.34
2022-12-11T11:50:05.452Z,95716.56
2022-12-11T11:53:04.628Z,95731.73
2022-12-11T11:55:46.039Z,95729.86
2022-12-11T11:58:33.463Z,95731.40
2022-12-11T12:01:01.601Z,95731.40
2022-12-11T12:03:30.530Z,95733.05
2022-12-11T12:06:39.970Z,95734.11
2022-12-11T12:09:33.921Z,95729.08
2022-12-11T12:12:37.556Z,95734.65
2022-12-11T12:15:26.916Z,95734.81
2022-12-11T12:18:05.932Z,95728.02
2022-12-11T12:20:47.425Z,95729.37
2022-12-11T12:24:07.170Z,95740.80
2022-12-11T12:27:50.553Z,95750.32
2022-12-11T12:30:22.124Z,95764.46
2022-12-11T12:33:19.688Z,95771.38
2022-12-11T12:36:16.309Z,95778.31
2022-12-11T12:38:56.067Z,95779.13
2022-12-11T12:41:50.554Z,95778.42
2022-12-11T12:44:23.153Z,95788.02
2022-12-11T12:47:09.642Z,95794.95
2022-12-11T12:49:43.063Z,95803.20
2022-12-11T12:52:30.875Z,95806.95
2022-12-11T12:55:16.288Z,95806.13
2022-12-11T12:58:00.587Z,95807.27
2022-12-11T13:00:42.691Z,95803.73
2022-12-11T13:03:29.311Z,95807.16
2022-12-11T13:06:04.761Z,95813.97
2022-12-11T13:08:50.836Z,95813.98
2022-12-11T13:11:31.108Z,95813.33
2022-12-11T13:14:07.680Z,95813.94
2022-12-11T13:16:43.337Z,95818.28
2022-12-11T13:19:18.535Z,95827.34
2022-12-11T13:22:14.803Z,95828.14
2022-12-11T13:24:52.602Z,95830.27
2022-12-11T13:27:29.477Z,95837.33
2022-12-11T13:30:14.035Z,95841.01
2022-12-11T13:33:06.781Z,95835.93
2022-12-11T13:35:35.675Z,95831.13
2022-12-11T13:38:20.208Z,95831.84
2022-12-11T13:40:54.757Z,95831.94
2022-12-11T13:43:27.435Z,95834.64
2022-12-11T13:46:02.971Z,95834.33
2022-12-11T13:48:39.550Z,95835.80
2022-12-11T13:51:07.934Z,95841.45
2022-12-11T13:53:36.339Z,95844.94
2022-12-11T13:56:08.167Z,95851.21
2022-12-11T13:58:40.694Z,95853.56
2022-12-11T14:01:14.583Z,95856.64
2022-12-11T14:04:14.873Z,95852.19
2022-12-11T14:06:43.585Z,95851.48
2022-12-11T14:09:21.174Z,95850.21
2022-12-11T14:11:56.429Z,95854.19
2022-12-11T14:14:45.384Z,95858.05
2022-12-11T14:17:19.685Z,95857.58
2022-12-11T14:19:48.614Z,95858.11
2022-12-11T14:22:20.743Z,95863.40
2022-12-11T14:25:16.909Z,95870.74
2022-12-11T14:27:54.774Z,95878.83
2022-12-11T14:30:31.785Z,95882.45
2022-12-11T14:33:05.594Z,95890.55
2022-12-11T14:35:40.259Z,95896.41
2022-12-11T14:38:34.383Z,95894.38
2022-12-11T14:41:19.031Z,95903.34
2022-12-11T14:44:02.266Z,95912.23
2022-12-11T14:46:57.055Z,95918.83
2022-12-11T14:49:51.864Z,95924.48
2022-12-11T14:52:33.855Z,95930.70
2022-12-11T14:55:13.184Z,95934.96
2022-12-11T14:57:55.446Z,95941.40
2022-12-11T15:00:46.462Z,95946.63
2022-12-11T15:03:51.850Z,95952.00
2022-12-11T15:06:41.158Z,95949.77
2022-12-11T15:09:20.352Z,95948.52
2022-12-11T15:11:51.143Z,95955.58
2022-12-11T15:14:25.432Z,95953.86
2022-12-11T15:16:57.711Z,95963.14
2022-12-11T15:19:30.871Z,95965.50
2022-12-11T15:22:08.849Z,95970.84
2022-12-11T15:24:44.113Z,95975.39
2022-12-11T15:27:39.934Z,95976.67
2022-12-11T15:30:26.664Z,95976.46
2022-12-11T15:33:11.261Z,95975.84
2022-12-11T15:35:58.369Z,95977.70
2022-12-11T15:38:42.572Z,95977.23
2022-12-11T15:41:33.410Z,95980.89
2022-12-11T15:44:04.575Z,95982.33
2022-12-11T15:46:46.638Z,95983.23
2022-12-11T15:49:15.340Z,95988.42
2022-12-11T15:51:44.371Z,95989.45
2022-12-11T15:54:12.748Z,95989.74
2022-12-11T15:56:41.579Z,95993.04
2022-12-11T15:59:10.437Z,95996.08
2022-12-11T16:01:38.786Z,95998.79
2022-12-11T16:04:07.946Z,95999.49
2022-12-11T16:06:36.130Z,95996.20
2022-12-11T16:09:05.172Z,95994.47
2022-12-11T16:11:33.285Z,95997.66
2022-12-11T16:14:04.399Z,96005.38
2022-12-11T16:16:32.737Z,96002.79
2022-12-11T16:19:00.881Z,96002.30
2022-12-11T16:21:29.219Z,96003.13
2022-12-11T16:23:57.398Z,96004.61
2022-12-11T16:26:25.599Z,96003.74
2022-12-11T16:28:53.813Z,96003.83
2022-12-11T16:31:22.192Z,96002.88
2022-12-11T16:33:50.463Z,96005.89
2022-12-11T16:36:19.943Z,96008.75
2022-12-11T16:38:53.559Z,96011.69
2022-12-11T16:41:23.517Z,96015.24
2022-12-11T16:43:52.550Z,96013.13
2022-12-11T16:46:23.030Z,96011.71
2022-12-11T16:48:51.191Z,96014.20
2022-12-11T16:51:19.399Z,96012.13
2022-12-11T16:53:47.617Z,96011.09
2022-12-11T16:56:15.804Z,96007.38
2022-12-11T16:58:44.064Z,96007.98
2022-12-11T17:01:13.839Z,96005.32
2022-12-11T17:03:43.569Z,96008.38
2022-12-11T17:06:15.671Z,96017.65
2022-12-11T17:08:44.753Z,96024.10
2022-12-11T17:11:19.507Z,96026.19
2022-12-11T17:13:48.687Z,96032.69
2022-12-11T17:16:17.209Z,96033.50
2022-12-11T17:18:45.643Z,96038.52
2022-12-11T17:21:17.746Z,96046.00
2022-12-11T17:23:46.101Z,96046.49
2022-12-11T17:26:14.915Z,96050.57
2022-12-11T17:28:43.162Z,96056.91
2022-12-11T17:31:18.581Z,96059.19
2022-12-11T17:33:47.723Z,96061.45
2022-12-11T17:36:20.220Z,96069.38
2022-12-11T17:38:50.059Z,96075.37
2022-12-11T17:41:20.679Z,96080.16
2022-12-11T17:43:54.351Z,96082.60
2022-12-11T17:46:23.322Z,96088.30
2022-12-11T17:48:51.626Z,96088.64
2022-12-11T17:51:24.617Z,96090.48
2022-12-11T17:53:55.960Z,96093.67
2022-12-11T17:56:24.726Z,96088.41
2022-12-11T17:58:53.069Z,96087.23
2022-12-11T18:01:21.545Z,96088.40
2022-12-11T18:03:49.780Z,96095.16
2022-12-11T18:06:18.037Z,96098.79
2022-12-11T18:08:46.258Z,96095.10
2022-12-11T18:11:21.734Z,96096.89
2022-12-11T18:13:52.292Z,96104.33
2022-12-11T18:16:32.264Z,96106.75
2022-12-11T18:19:00.571Z,96107.48
2022-12-11T18:21:34.606Z,96111.20
2022-12-11T18:24:03.170Z,96110.81
2022-12-11T18:26:31.298Z,96118.34
2022-12-11T18:28:59.417Z,96121.41
2022-12-11T18:31:27.529Z,96119.87
2022-12-11T18:33:55.844Z,96126.95
2022-12-11T18:36:24.070Z,96136.29
2022-12-11T18:38:52.276Z,96141.39
2022-12-11T18:41:20.614Z,96135.90
2022-12-11T18:43:48.858Z,96134.66
2022-12-11T18:46:21.347Z,96134.64
2022-12-11T18:48:50.732Z,96138.06
2022-12-11T18:51:24.057Z,96145.31
2022-12-11T18:53:53.695Z,96152.79
2022-12-11T18:56:23.648Z,96151.88
2022-12-11T18:58:52.048Z,96149.89
2022-12-11T19:01:27.530Z,96144.19
2022-12-11T19:04:04.526Z,96139.11
2022-12-11T19:06:35.773Z,96136.55
2022-12-11T19:09:07.274Z,96138.27
2022-12-11T19:11:40.143Z,96139.60
2022-12-11T19:14:09.264Z,96143.13
2022-12-11T19:16:47.564Z,96150.83
2022-12-11T19:19:20.159Z,96161.27
2022-12-11T19:21:49.627Z,96167.59
2022-12-11T19:24:22.480Z,96168.54
2022-12-11T19:26:51.563Z,96177.30
2022-12-11T19:29:29.826Z,96189.35
2022-12-11T19:31:59.109Z,96195.27
2022-12-11T19:34:27.411Z,96205.66
2022-12-11T19:36:56.640Z,96210.40
2022-12-11T19:39:25.193Z,96213.68
2022-12-11T19:41:53.230Z,96212.35
2022-12-11T19:44:21.440Z,96208.95
2022-12-11T19:46:50.458Z,96209.14
2022-12-11T19:49:18.811Z,96205.16
2022-12-11T19:51:47.435Z,96199.86
2022-12-11T19:54:17.788Z,96196.13
2022-12-11T19:56:45.996Z,96197.27
2022-12-11T19:59:17.827Z,96201.95
2022-12-11T20:01:48.124Z,96198.80
2022-12-11T20:04:18.339Z,96184.15
2022-12-11T20:06:47.347Z,96180.45
2022-12-11T20:09:16.126Z,96182.63
2022-12-11T20:11:45.889Z,96181.61
2022-12-11T20:14:23.392Z,96183.83
2022-12-11T20:17:10.873Z,96186.08
2022-12-11T20:19:40.929Z,96192.27
2022-12-11T20:22:09.343Z,96203.56
2022-12-11T20:24:37.965Z,96205.02
2022-12-11T20:27:06.296Z,96203.48
2022-12-11T20:29:34.467Z,96204.58
2022-12-11T20:32:02.800Z,96210.00
2022-12-11T20:34:31.082Z,96211.94
2022-12-11T20:37:00.555Z,96216.40
2022-12-11T20:39:29.270Z,96210.41
2022-12-11T20:41:57.899Z,96209.48
2022-12-11T20:44:26.165Z,96212.65
2022-12-11T20:46:54.945Z,96217.30
2022-12-11T20:49:23.156Z,96216.58
2022-12-11T20:51:52.161Z,96211.71
2022-12-11T20:54:20.371Z,96213.57
2022-12-11T20:56:48.528Z,96222.67
2022-12-11T20:59:16.675Z,96233.95
2022-12-11T21:01:44.842Z,96242.42
2022-12-11T21:04:13.187Z,96240.53
2022-12-11T21:06:42.241Z,96240.70
2022-12-11T21:09:20.086Z,96239.88
2022-12-11T21:11:48.698Z,96241.48
2022-12-11T21:14:18.284Z,96241.98
2022-12-11T21:16:47.234Z,96243.31
2022-12-11T21:19:17.060Z,96240.54
2022-12-11T21:21:46.718Z,96239.27
2022-12-11T21:24:26.670Z,96239.38
2022-12-11T21:26:57.531Z,96241.48
2022-12-11T21:29:29.324Z,96240.95
2022-12-11T21:31:58.146Z,96240.73
2022-12-11T21:34:26.935Z,96237.27
2022-12-11T21:36:57.046Z,96237.07
2022-12-11T21:39:28.272Z,96238.33
2022-12-11T21:41:58.214Z,96244.31
2022-12-11T21:47:14.425Z,96243.66
2022-12-11T21:49:42.598Z,96238.81
2022-12-11T21:52:10.900Z,96229.23
2022-12-11T21:54:39.169Z,96226.96
2022-12-11T21:57:07.636Z,96224.11
2022-12-11T21:59:35.867Z,96225.64
2022-12-11T22:02:04.530Z,96225.42
2022-12-11T22:04:32.863Z,96224.30
2022-12-11T22:07:01.047Z,96227.69
2022-12-11T22:09:29.239Z,96228.65
2022-12-11T22:11:58.738Z,96227.04
2022-12-11T22:14:27.554Z,96231.88
2022-12-11T22:16:55.690Z,96230.35
2022-12-11T22:19:29.049Z,96225.67
2022-12-11T22:22:00.777Z,96224.91
2022-12-11T22:24:29.001Z,96222.38
2022-12-11T22:26:57.181Z,96224.15
2022-12-11T22:29:25.238Z,96227.89
2022-12-11T22:31:54.636Z,96228.08
2022-12-11T22:34:22.977Z,96226.23
2022-12-11T22:36:51.638Z,96222.79
2022-12-11T22:39:19.838Z,96225.09
2022-12-11T22:41:47.978Z,96223.96
2022-12-11T22:44:19.985Z,96222.75
2022-12-11T22:46:50.455Z,96221.72
2022-12-11T22:49:19.966Z,96221.98
2022-12-11T22:51:51.044Z,96220.77
2022-12-11T22:54:19.704Z,96225.30
2022-12-11T22:56:47.760Z,96229.64
2022-12-11T22:59:16.008Z,96238.31
2022-12-11T23:01:46.020Z,96241.48
2022-12-11T23:04:14.168Z,96247.88
2022-12-11T23:06:42.391Z,96249.98
2022-12-11T23:09:11.279Z,96254.16
2022-12-11T23:11:40.126Z,96259.13
2022-12-11T23:14:13.476Z,96261.05
2022-12-11T23:16:42.920Z,96262.89
2022-12-11T23:19:12.598Z,96259.58
2022-12-11T23:21:40.961Z,96254.30
2022-12-11T23:24:10.825Z,96258.15
2022-12-11T23:26:39.600Z,96264.73
2022-12-11T23:29:07.897Z,96268.09
2022-12-11T23:31:36.152Z,96275.80
2022-12-11T23:34:04.190Z,96288.65
2022-12-11T23:36:32.973Z,96293.61
2022-12-11T23:39:00.996Z,96297.42
2022-12-11T23:41:29.223Z,96295.41
2022-12-11T23:43:57.320Z,96296.23
2022-12-11T23:46:25.960Z,96294.30
2022-12-11T23:48:55.856Z,96292.77
2022-12-11T23:51:25.506Z,96295.75
2022-12-11T23:53:53.858Z,96303.24
2022-12-11T23:56:28.993Z,96296.78
2022-12-11T23:58:58.037Z,96302.23
